Challenge, California
Current Conditions -  °F | °C
As of 7:53 PM on Wednesday 28 Jan 2015 (Local Time) from KOVE Reporting Station
Clear Clear  
Wind Chill: 56°   Ceiling: Unl
Heat Index: 56°   Visibility: 10mi
Dew Point: 45°   Wind: 8mph
Humidity: 67%   Direction: 140°SE
Pressure: 30.17"   Gusts: NA
Location:  39.49°N, 121.22°W
Report Text: KOVE 290353Z AUTO 14007KT 10SM CLR 13/07 A3017 RMK AO2 SLP218 T01330072
Loading
Personal Weather Stations






























Interactive Weather Map New forecast layout! Learn more

10-Day Weather Forecast

Advertisements
Track Severe Weather on mobile